Time;durP1;ratioP1;P1;durP2;ratioP2;P2;SDS_P1;SDS_P2;PMS_P1;PMS_P2;Temp;Humidity;BMP_temperature;BMP_pressure;BME280_temperature;BME280_humidity;BME280_pressure;Samples;Min_cycle;Max_cycle;Signal;HPM_P1;HPM_P2
2021/09/23 00:00:32;;;;;;;8.77;6.30;;;14.50;70.80;;;;;;5007271;28;20051;-75
2021/09/23 00:05:26;;;;;;;7.28;5.15;;;14.50;70.70;;;;;;5008210;28;20026;-75
2021/09/23 00:07:55;;;;;;;8.75;7.03;;;14.50;70.60;;;;;;5007246;28;20025;-75
2021/09/23 00:10:24;;;;;;;12.75;9.50;;;14.50;70.70;;;;;;5007924;28;20018;-74
2021/09/23 00:12:51;;;;;;;15.40;10.85;;;14.50;70.90;;;;;;5008421;28;20026;-74
2021/09/23 00:15:18;;;;;;;14.25;10.70;;;14.40;71.00;;;;;;5008089;28;20124;-74
2021/09/23 00:17:49;;;;;;;10.73;7.90;;;14.40;71.30;;;;;;5007432;28;20455;-74
2021/09/23 00:20:22;;;;;;;11.25;7.55;;;14.40;71.30;;;;;;5006030;28;20037;-74
2021/09/23 00:22:48;;;;;;;;;;;14.40;71.10;;;;;;5005134;28;20071;-74
2021/09/23 00:25:13;;;;;;;13.18;9.70;;;14.40;70.90;;;;;;5007406;28;20004;-74
2021/09/23 00:27:39;;;;;;;15.35;9.77;;;14.30;71.20;;;;;;5007122;28;20105;-74
2021/09/23 00:30:06;;;;;;;14.32;9.95;;;14.30;71.30;;;;;;5007122;28;20082;-74
2021/09/23 00:32:32;;;;;;;14.93;10.45;;;14.30;71.40;;;;;;5006154;28;20453;-74
2021/09/23 00:34:58;;;;;;;14.73;10.73;;;14.30;71.40;;;;;;5006358;28;20426;-74
2021/09/23 00:37:23;;;;;;;13.10;9.02;;;14.30;71.40;;;;;;5006295;28;20564;-75
2021/09/23 00:39:49;;;;;;;10.65;8.50;;;14.20;71.40;;;;;;5005015;28;20049;-75
2021/09/23 00:42:14;;;;;;;15.25;10.63;;;14.20;71.40;;;;;;5006178;28;20506;-74
2021/09/23 00:44:51;;;;;;;14.45;10.80;;;14.20;71.50;;;;;;5007835;28;20045;-74
2021/09/23 00:47:17;;;;;;;15.68;10.18;;;14.20;71.60;;;;;;5001917;28;20392;-75
2021/09/23 00:49:42;;;;;;;13.13;9.30;;;14.10;71.70;;;;;;5006392;28;20100;-75
2021/09/23 00:52:08;;;;;;;13.52;10.15;;;14.10;71.70;;;;;;5007661;28;20046;-74
2021/09/23 00:54:33;;;;;;;13.90;10.25;;;14.10;71.70;;;;;;5006291;28;20429;-74
2021/09/23 00:56:59;;;;;;;15.23;11.40;;;14.10;71.80;;;;;;5006381;28;20095;-74
2021/09/23 00:59:25;;;;;;;16.98;10.93;;;14.00;72.00;;;;;;5005814;28;20053;-74
2021/09/23 01:01:50;;;;;;;12.13;8.90;;;14.00;72.30;;;;;;5007075;28;20163;-74
2021/09/23 01:04:15;;;;;;;16.77;11.82;;;14.00;72.20;;;;;;5007642;28;20058;-75
2021/09/23 01:06:41;;;;;;;14.13;9.00;;;14.00;72.30;;;;;;5010271;28;20407;-76
2021/09/23 01:09:07;;;;;;;15.48;10.82;;;13.90;72.30;;;;;;5007327;28;20032;-75
2021/09/23 01:11:32;;;;;;;10.88;8.40;;;14.00;72.50;;;;;;5004958;28;20026;-75
2021/09/23 01:13:58;;;;;;;11.32;9.13;;;14.00;72.50;;;;;;5010146;28;20038;-75
2021/09/23 01:16:23;;;;;;;15.43;10.45;;;13.90;72.40;;;;;;5009044;28;20053;-75
2021/09/23 01:18:49;;;;;;;17.65;12.27;;;13.90;72.60;;;;;;5009902;28;20105;-75
2021/09/23 01:21:14;;;;;;;16.50;10.70;;;13.80;72.90;;;;;;5009656;28;20084;-76
2021/09/23 01:23:43;;;;;;;14.68;10.07;;;13.80;73.00;;;;;;5007382;28;20053;-75
2021/09/23 01:26:11;;;;;;;15.27;9.98;;;13.80;73.10;;;;;;5011759;28;20030;-75
2021/09/23 01:28:39;;;;;;;13.27;9.55;;;13.80;73.10;;;;;;5027574;28;20500;-75
2021/09/23 01:31:05;;;;;;;11.75;8.15;;;13.80;73.20;;;;;;5010552;28;20311;-75
2021/09/23 01:33:30;;;;;;;12.50;9.18;;;13.80;73.10;;;;;;5010381;28;20018;-75
2021/09/23 01:35:56;;;;;;;13.38;8.98;;;13.80;73.00;;;;;;5041315;28;20044;-75
2021/09/23 01:38:24;;;;;;;12.77;9.25;;;13.80;73.10;;;;;;5009228;28;20034;-75
2021/09/23 01:40:50;;;;;;;11.85;8.40;;;13.70;73.10;;;;;;5019579;28;20104;-75
2021/09/23 01:43:15;;;;;;;11.10;8.52;;;13.70;73.10;;;;;;5005416;28;20622;-75
2021/09/23 01:45:41;;;;;;;12.25;8.57;;;13.70;73.10;;;;;;5032318;28;20016;-76
2021/09/23 01:48:07;;;;;;;13.95;9.85;;;13.70;73.00;;;;;;5030667;28;20030;-75
2021/09/23 01:50:32;;;;;;;11.68;8.32;;;13.70;73.20;;;;;;5014062;28;20025;-75
2021/09/23 01:52:58;;;;;;;14.85;10.20;;;13.70;73.30;;;;;;5049657;28;20105;-74
2021/09/23 01:55:24;;;;;;;11.95;8.27;;;13.70;73.40;;;;;;5030003;28;20033;-75
2021/09/23 01:57:49;;;;;;;11.50;8.77;;;13.70;73.40;;;;;;5011148;28;20045;-74
2021/09/23 02:00:15;;;;;;;12.55;8.85;;;13.60;73.40;;;;;;5032185;28;20026;-75
2021/09/23 02:02:41;;;;;;;13.77;9.45;;;13.60;73.30;;;;;;5007492;28;20122;-74
2021/09/23 02:05:07;;;;;;;13.00;8.30;;;13.60;73.30;;;;;;5011309;28;20052;-74
2021/09/23 02:07:33;;;;;;;13.70;7.93;;;13.60;73.20;;;;;;5009529;28;20026;-74
2021/09/23 02:09:58;;;;;;;16.38;10.02;;;13.60;73.30;;;;;;5009080;28;20045;-75
2021/09/23 02:12:24;;;;;;;14.48;8.93;;;13.60;73.30;;;;;;5040076;28;20029;-76
2021/09/23 02:14:50;;;;;;;12.93;9.07;;;13.60;73.40;;;;;;5006748;28;20041;-74
2021/09/23 02:17:15;;;;;;;17.73;11.25;;;13.60;73.40;;;;;;5008945;28;20033;-75
2021/09/23 02:19:41;;;;;;;16.85;9.73;;;13.60;73.50;;;;;;5009661;28;20395;-76
2021/09/23 02:22:06;;;;;;;22.55;13.60;;;13.60;73.50;;;;;;5008510;28;20026;-75
2021/09/23 02:24:32;;;;;;;23.88;14.73;;;13.60;73.70;;;;;;5008669;28;20033;-76
2021/09/23 02:26:58;;;;;;;16.52;10.65;;;13.50;73.80;;;;;;5008530;28;20026;-76
2021/09/23 02:29:23;;;;;;;19.73;11.77;;;13.50;73.80;;;;;;5009864;28;20071;-75
2021/09/23 02:31:49;;;;;;;25.67;14.75;;;13.50;73.90;;;;;;5009846;28;20103;-75
2021/09/23 02:34:14;;;;;;;21.90;14.55;;;13.40;74.10;;;;;;5009354;28;20030;-75
2021/09/23 02:36:40;;;;;;;22.73;13.32;;;13.40;74.20;;;;;;5030633;28;20057;-75
2021/09/23 02:39:05;;;;;;;22.42;13.18;;;13.40;74.30;;;;;;5052376;28;20030;-75
2021/09/23 02:41:32;;;;;;;17.80;10.88;;;13.30;74.40;;;;;;5031609;28;20033;-75
2021/09/23 02:43:58;;;;;;;18.83;11.80;;;13.30;74.40;;;;;;5007035;28;20107;-75
2021/09/23 02:46:24;;;;;;;20.80;13.02;;;13.30;74.50;;;;;;5028110;28;20381;-75
2021/09/23 02:48:49;;;;;;;21.10;12.52;;;13.20;74.50;;;;;;5016360;28;20121;-75
2021/09/23 02:51:15;;;;;;;22.65;14.43;;;13.20;74.70;;;;;;5024947;28;20373;-74
2021/09/23 02:53:41;;;;;;;22.38;13.85;;;13.20;74.90;;;;;;5025936;28;20025;-75
2021/09/23 02:56:06;;;;;;;21.40;13.15;;;13.20;74.90;;;;;;5033359;28;20392;-75
2021/09/23 02:58:32;;;;;;;22.63;13.13;;;13.10;74.90;;;;;;5021487;28;20022;-75
2021/09/23 03:00:58;;;;;;;16.70;10.45;;;13.10;75.10;;;;;;5022468;28;20511;-75
2021/09/23 03:03:23;;;;;;;18.88;12.35;;;13.10;75.00;;;;;;5027022;28;20026;-74
2021/09/23 03:05:49;;;;;;;15.68;9.98;;;13.10;75.00;;;;;;5016244;28;20072;-74
2021/09/23 03:08:14;;;;;;;11.82;7.75;;;13.10;74.90;;;;;;5004537;28;20322;-74
2021/09/23 03:10:40;;;;;;;16.60;9.82;;;13.20;74.80;;;;;;5007704;28;20037;-75
2021/09/23 03:13:06;;;;;;;20.58;11.25;;;13.20;74.80;;;;;;5007906;28;20030;-75
2021/09/23 03:15:32;;;;;;;18.67;11.38;;;13.20;74.80;;;;;;5007621;28;20105;-75
2021/09/23 03:17:57;;;;;;;17.75;11.20;;;13.10;74.80;;;;;;5006898;28;20105;-74
2021/09/23 03:20:24;;;;;;;15.70;9.70;;;13.20;74.90;;;;;;5008603;28;20030;-74
2021/09/23 03:22:52;;;;;;;18.60;11.13;;;13.20;74.90;;;;;;5007402;28;20022;-75
2021/09/23 03:25:17;;;;;;;19.27;12.57;;;13.20;74.90;;;;;;5008593;28;20392;-74
2021/09/23 03:27:43;;;;;;;21.50;12.55;;;13.20;75.00;;;;;;5007156;28;20022;-74
2021/09/23 03:30:09;;;;;;;16.48;10.98;;;13.20;74.90;;;;;;5007423;28;20034;-74
2021/09/23 03:32:35;;;;;;;15.27;8.60;;;13.20;74.90;;;;;;5008063;28;20038;-75
2021/09/23 03:35:00;;;;;;;15.90;9.98;;;13.20;74.90;;;;;;5005837;28;20018;-75
2021/09/23 03:37:26;;;;;;;18.23;12.30;;;13.20;74.80;;;;;;5007775;28;20479;-75
2021/09/23 03:39:51;;;;;;;13.43;8.43;;;13.20;74.80;;;;;;5007797;28;20450;-75
2021/09/23 03:42:17;;;;;;;10.90;7.68;;;13.20;74.80;;;;;;5007070;28;20565;-75
2021/09/23 03:44:42;;;;;;;14.63;9.95;;;13.20;74.80;;;;;;5008231;28;20453;-75
2021/09/23 03:47:08;;;;;;;17.67;11.45;;;13.20;74.80;;;;;;5006291;28;20111;-75
2021/09/23 03:49:33;;;;;;;14.10;9.63;;;13.20;74.90;;;;;;5008328;28;20064;-75
2021/09/23 03:51:59;;;;;;;15.98;10.02;;;13.20;74.90;;;;;;5008394;28;20446;-75
2021/09/23 03:54:25;;;;;;;15.63;9.88;;;13.20;74.80;;;;;;5007697;28;20033;-75
2021/09/23 03:56:50;;;;;;;14.30;9.93;;;13.20;74.80;;;;;;5008482;28;20052;-74
2021/09/23 03:59:16;;;;;;;16.40;10.70;;;13.20;74.80;;;;;;5007338;28;20057;-75
2021/09/23 04:01:41;;;;;;;19.27;10.93;;;13.20;74.80;;;;;;5007360;28;20405;-74
2021/09/23 04:04:07;;;;;;;13.80;8.90;;;13.20;74.70;;;;;;5007496;28;20095;-74
2021/09/23 04:06:33;;;;;;;13.45;8.57;;;13.20;74.60;;;;;;5007052;28;20244;-74
2021/09/23 04:08:58;;;;;;;14.48;9.55;;;13.20;74.60;;;;;;5005412;28;20461;-74
2021/09/23 04:11:24;;;;;;;13.45;9.07;;;13.20;74.60;;;;;;5007601;28;20041;-75
2021/09/23 04:13:49;;;;;;;18.33;11.82;;;13.10;74.60;;;;;;5007434;28;20030;-74
2021/09/23 04:16:15;;;;;;;19.00;12.57;;;13.10;74.70;;;;;;5007475;28;20034;-74
2021/09/23 04:18:40;;;;;;;16.42;10.73;;;13.10;74.90;;;;;;5006714;28;20480;-74
2021/09/23 04:21:06;;;;;;;15.80;11.00;;;13.00;74.90;;;;;;5007268;28;20111;-74
2021/09/23 04:23:31;;;;;;;15.20;10.43;;;13.00;74.90;;;;;;5006832;28;20471;-74
2021/09/23 04:25:57;;;;;;;19.02;11.95;;;13.00;75.00;;;;;;5006300;28;20038;-74
2021/09/23 04:28:23;;;;;;;17.92;11.18;;;13.00;75.10;;;;;;5009658;28;20025;-74
2021/09/23 04:30:48;;;;;;;16.90;11.77;;;13.00;75.10;;;;;;5006784;28;20040;-74
2021/09/23 04:33:14;;;;;;;12.48;8.40;;;13.00;75.20;;;;;;5007960;28;20426;-74
2021/09/23 04:35:39;;;;;;;15.02;10.52;;;12.90;75.10;;;;;;5006446;28;20026;-74
2021/09/23 04:38:05;;;;;;;17.45;10.88;;;12.90;75.20;;;;;;5006491;28;20030;-74
2021/09/23 04:40:31;;;;;;;16.02;10.40;;;12.90;75.20;;;;;;5006531;28;20219;-74
2021/09/23 04:42:56;;;;;;;17.38;11.20;;;12.90;75.20;;;;;;5007625;28;20555;-74
2021/09/23 04:45:22;;;;;;;13.52;9.10;;;12.90;75.30;;;;;;5006364;28;20033;-75
2021/09/23 04:47:47;;;;;;;17.90;11.98;;;12.90;75.30;;;;;;5006075;28;20018;-75
2021/09/23 04:50:13;;;;;;;16.75;12.38;;;12.80;75.30;;;;;;5005350;28;20045;-74
2021/09/23 04:52:39;;;;;;;16.35;10.48;;;12.80;75.40;;;;;;5006429;28;20388;-74
2021/09/23 04:55:06;;;;;;;17.55;12.38;;;12.80;75.50;;;;;;5007056;28;20130;-74
2021/09/23 04:57:33;;;;;;;18.77;11.75;;;12.80;75.60;;;;;;5006296;28;20022;-74
2021/09/23 05:00:00;;;;;;;20.65;14.20;;;12.80;75.70;;;;;;5005195;28;20030;-74
2021/09/23 05:02:30;;;;;;;25.13;16.20;;;12.70;75.80;;;;;;5004860;28;20373;-74
2021/09/23 05:04:55;;;;;;;21.92;14.45;;;12.70;76.30;;;;;;5005634;28;20034;-75
2021/09/23 05:07:21;;;;;;;22.45;15.20;;;12.60;76.30;;;;;;5025184;28;20390;-75
2021/09/23 05:09:46;;;;;;;20.45;13.93;;;12.60;77.20;;;;;;5007228;28;20113;-74
2021/09/23 05:12:12;;;;;;;17.30;11.68;;;12.60;76.70;;;;;;5016622;28;20095;-75
2021/09/23 05:14:37;;;;;;;24.42;16.48;;;12.60;76.70;;;;;;5007212;28;20054;-76
2021/09/23 05:17:03;;;;;;;22.55;14.75;;;12.50;76.80;;;;;;5019728;28;20034;-74
2021/09/23 05:19:28;;;;;;;25.27;16.63;;;12.50;76.90;;;;;;5022070;28;20120;-74
2021/09/23 05:21:54;;;;;;;20.35;15.07;;;12.50;77.40;;;;;;5040989;28;20027;-74
2021/09/23 05:24:19;;;;;;;26.85;17.38;;;12.50;77.60;;;;;;5011213;28;20042;-74
2021/09/23 05:26:45;;;;;;;25.80;18.25;;;12.40;77.80;;;;;;5015383;28;20105;-74
2021/09/23 05:29:11;;;;;;;24.95;17.58;;;12.40;78.10;;;;;;5022057;28;20034;-74
2021/09/23 05:31:36;;;;;;;25.88;17.30;;;12.40;78.50;;;;;;5045687;28;20594;-74
2021/09/23 05:34:04;;;;;;;23.73;16.27;;;12.30;78.50;;;;;;5014966;28;20079;-77
2021/09/23 05:36:29;;;;;;;20.35;13.90;;;12.40;78.50;;;;;;5022428;28;20565;-74
2021/09/23 05:38:59;;;;;;;16.30;11.05;;;12.40;78.40;;;;;;5017591;28;20041;-75
2021/09/23 05:41:27;;;;;;;21.23;14.77;;;12.40;78.30;;;;;;5013123;28;20086;-74
2021/09/23 05:43:53;;;;;;;20.50;14.35;;;12.50;78.20;;;;;;5015983;28;20042;-74
2021/09/23 05:46:19;;;;;;;20.40;14.18;;;12.50;78.30;;;;;;5007877;28;20029;-73
2021/09/23 05:48:44;;;;;;;23.20;16.63;;;12.50;78.20;;;;;;5007019;28;20511;-74
2021/09/23 05:51:10;;;;;;;18.65;13.05;;;12.60;78.30;;;;;;5006013;28;20046;-74
2021/09/23 05:53:36;;;;;;;18.45;13.57;;;12.60;78.10;;;;;;5020302;28;20034;-74
2021/09/23 05:56:02;;;;;;;16.00;10.63;;;12.60;78.10;;;;;;5047859;28;20030;-73
2021/09/23 05:58:27;;;;;;;15.65;11.55;;;12.70;78.00;;;;;;5003745;28;20026;-74
2021/09/23 06:00:53;;;;;;;16.80;12.88;;;12.80;77.90;;;;;;5003231;28;20022;-74
2021/09/23 06:03:18;;;;;;;18.13;11.75;;;12.80;77.80;;;;;;5008115;28;20038;-73
2021/09/23 06:05:47;;;;;;;21.75;16.13;;;12.90;77.70;;;;;;5004482;28;20483;-75
2021/09/23 06:08:13;;;;;;;20.50;14.02;;;13.00;77.70;;;;;;5024637;28;20023;-76
2021/09/23 06:10:38;;;;;;;18.23;13.38;;;13.10;77.30;;;;;;5047825;28;20423;-76
2021/09/23 06:13:05;;;;;;;19.63;13.10;;;13.20;77.00;;;;;;5023101;28;20033;-75
2021/09/23 06:15:31;;;;;;;15.85;11.75;;;13.20;76.70;;;;;;5018279;28;20034;-74
2021/09/23 06:17:57;;;;;;;20.13;14.57;;;13.30;76.60;;;;;;5013740;28;20037;-76
2021/09/23 06:20:22;;;;;;;16.15;12.27;;;13.40;76.60;;;;;;5013238;28;20472;-75
2021/09/23 06:22:48;;;;;;;20.13;14.48;;;13.40;76.50;;;;;;5015897;28;20140;-75
2021/09/23 06:25:13;;;;;;;15.70;11.73;;;13.40;76.70;;;;;;5029163;28;20018;-74
2021/09/23 06:27:39;;;;;;;15.88;11.27;;;13.50;76.50;;;;;;5004218;28;20548;-75
2021/09/23 06:30:05;;;;;;;16.05;11.70;;;13.60;76.30;;;;;;5009958;28;20026;-75
2021/09/23 06:32:31;;;;;;;19.10;13.93;;;13.70;76.10;;;;;;5015811;28;20483;-76
2021/09/23 06:34:56;;;;;;;15.10;11.20;;;13.80;75.90;;;;;;5007980;28;20034;-74
2021/09/23 06:37:22;;;;;;;16.80;12.43;;;13.80;75.80;;;;;;5032984;28;20104;-74
2021/09/23 06:39:47;;;;;;;24.38;16.15;;;13.90;75.70;;;;;;5052161;28;20047;-76
2021/09/23 06:42:16;;;;;;;18.98;13.35;;;14.00;75.70;;;;;;5024439;28;20026;-74
2021/09/23 06:44:44;;;;;;;19.00;12.68;;;14.00;75.70;;;;;;5009269;28;20116;-76
2021/09/23 06:47:10;;;;;;;16.17;11.45;;;14.10;75.60;;;;;;5005123;28;20594;-75
2021/09/23 06:49:36;;;;;;;19.50;14.73;;;14.10;75.60;;;;;;5029780;28;20034;-77
2021/09/23 06:52:02;;;;;;;31.83;25.50;;;14.10;75.70;;;;;;5032777;28;20051;-75
2021/09/23 06:54:28;;;;;;;25.65;18.98;;;14.20;75.80;;;;;;5014339;28;20022;-75
2021/09/23 06:56:54;;;;;;;25.55;17.27;;;14.30;76.40;;;;;;5027066;28;20083;-74
2021/09/23 06:59:19;;;;;;;20.27;14.70;;;14.40;75.80;;;;;;5004373;28;20492;-74
2021/09/23 07:01:45;;;;;;;21.75;16.45;;;14.50;75.80;;;;;;5029106;28;20036;-75
2021/09/23 07:04:11;;;;;;;20.85;14.77;;;14.50;75.80;;;;;;5048081;28;20039;-75
2021/09/23 07:06:39;;;;;;;19.77;14.52;;;14.50;75.90;;;;;;5041680;28;20057;-76
2021/09/23 07:09:05;;;;;;;21.52;15.60;;;14.50;75.90;;;;;;5108527;27;20026;-75
2021/09/23 07:11:30;;;;;;;22.85;16.10;;;14.60;76.00;;;;;;5047837;28;20041;-76
2021/09/23 07:13:56;;;;;;;15.40;10.68;;;14.50;76.00;;;;;;5018613;28;20111;-75
2021/09/23 07:16:21;;;;;;;20.08;14.27;;;14.50;76.00;;;;;;5054199;28;20082;-75
2021/09/23 07:18:47;;;;;;;15.95;11.45;;;14.50;76.30;;;;;;5006959;28;20048;-75
2021/09/23 07:21:12;;;;;;;20.27;14.63;;;14.60;76.30;;;;;;5007883;28;20062;-77
2021/09/23 07:23:38;;;;;;;19.75;14.38;;;14.70;76.30;;;;;;5006253;28;20478;-76
2021/09/23 07:26:03;;;;;;;19.63;14.65;;;14.80;76.40;;;;;;5005899;28;20029;-75
2021/09/23 07:28:30;;;;;;;17.48;13.07;;;14.80;76.40;;;;;;5019123;28;20046;-76
2021/09/23 07:30:56;;;;;;;20.88;15.60;;;14.90;76.30;;;;;;5017969;28;20031;-77
2021/09/23 07:33:22;;;;;;;18.20;11.85;;;15.10;76.50;;;;;;5041841;28;20022;-75
2021/09/23 07:35:47;;;;;;;17.90;12.35;;;15.10;76.40;;;;;;5006426;28;20029;-74
2021/09/23 07:38:13;;;;;;;17.77;12.07;;;15.20;76.50;;;;;;5009940;28;20406;-77
2021/09/23 07:40:38;;;;;;;24.33;17.10;;;15.20;76.70;;;;;;5009455;28;20025;-76
2021/09/23 07:43:04;;;;;;;20.33;14.75;;;15.20;77.20;;;;;;5007917;28;20392;-75
2021/09/23 07:45:30;;;;;;;31.85;21.65;;;15.20;77.30;;;;;;5009057;28;20025;-74
2021/09/23 07:47:55;;;;;;;26.15;18.60;;;15.30;77.70;;;;;;5007899;28;20033;-76
2021/09/23 07:50:21;;;;;;;23.45;15.65;;;15.40;77.70;;;;;;5010246;28;20037;-75
2021/09/23 07:52:46;;;;;;;30.75;21.02;;;15.50;77.80;;;;;;5027033;28;20037;-76
2021/09/23 07:55:12;;;;;;;22.13;16.17;;;15.60;77.90;;;;;;5011227;28;20082;-75
2021/09/23 07:57:38;;;;;;;34.78;24.42;;;15.70;77.60;;;;;;5107053;27;20106;-76
2021/09/23 08:00:05;;;;;;;26.88;20.02;;;15.70;78.10;;;;;;5020545;28;20200;-77
2021/09/23 08:02:30;;;;;;;26.85;19.35;;;15.80;78.30;;;;;;5044562;28;20014;-75
2021/09/23 08:04:56;;;;;;;19.48;14.45;;;15.90;78.40;;;;;;5001581;28;20033;-76
2021/09/23 08:07:22;;;;;;;19.98;13.80;;;16.10;78.10;;;;;;5025950;28;20022;-77
2021/09/23 08:09:47;;;;;;;18.40;13.45;;;16.20;77.80;;;;;;5013240;28;20029;-76
2021/09/23 08:12:13;;;;;;;23.83;16.08;;;16.30;77.60;;;;;;5017576;28;20025;-75
2021/09/23 08:14:40;;;;;;;19.45;14.05;;;16.30;77.60;;;;;;5014356;28;20032;-75
2021/09/23 08:17:06;;;;;;;21.73;15.30;;;16.50;77.50;;;;;;5001583;28;20025;-75
2021/09/23 08:19:35;;;;;;;20.88;14.85;;;16.50;77.40;;;;;;5016389;28;20022;-76
2021/09/23 08:22:03;;;;;;;19.15;13.50;;;16.60;77.80;;;;;;5010167;28;20046;-77
2021/09/23 08:24:28;;;;;;;18.73;14.15;;;16.60;77.40;;;;;;5036472;28;20113;-75
2021/09/23 08:26:54;;;;;;;18.40;13.50;;;16.70;77.40;;;;;;5008001;28;20120;-76
2021/09/23 08:29:19;;;;;;;19.45;13.93;;;16.90;77.20;;;;;;5014218;28;20014;-75
2021/09/23 08:31:46;;;;;;;19.60;13.40;;;17.00;77.10;;;;;;4999541;28;20486;-75
2021/09/23 08:34:11;;;;;;;17.52;13.52;;;17.10;76.80;;;;;;5007358;28;20026;-76
2021/09/23 08:36:37;;;;;;;19.40;13.38;;;17.30;76.70;;;;;;5001023;28;20365;-75
2021/09/23 08:39:02;;;;;;;18.80;13.68;;;17.40;76.50;;;;;;5026642;28;20023;-75
2021/09/23 08:41:29;;;;;;;17.80;13.05;;;17.40;76.10;;;;;;5023057;28;20037;-75
2021/09/23 08:43:56;;;;;;;19.27;14.23;;;17.40;75.80;;;;;;5035620;28;20042;-77
2021/09/23 08:46:21;;;;;;;21.67;15.35;;;17.50;75.90;;;;;;5000956;28;20023;-77
2021/09/23 08:48:48;;;;;;;18.73;11.98;;;17.50;75.90;;;;;;4997129;28;20030;-77
2021/09/23 08:51:14;;;;;;;18.63;14.45;;;17.60;75.70;;;;;;5002637;28;20479;-76
2021/09/23 08:53:40;;;;;;;12.95;9.73;;;17.60;75.60;;;;;;4999839;28;20033;-75
2021/09/23 08:56:14;;;;;;;16.70;12.45;;;17.70;75.50;;;;;;5000618;28;20029;-75
2021/09/23 08:58:40;;;;;;;16.27;10.27;;;17.80;75.30;;;;;;4996142;28;20061;-76
2021/09/23 09:01:06;;;;;;;17.17;11.60;;;17.80;75.20;;;;;;4997620;28;20025;-76
2021/09/23 09:03:33;;;;;;;20.13;15.15;;;17.90;75.10;;;;;;5005550;28;20172;-76
2021/09/23 09:06:02;;;;;;;18.38;12.77;;;18.00;74.90;;;;;;5002029;28;20410;-75
2021/09/23 09:08:34;;;;;;;18.05;13.23;;;18.10;74.70;;;;;;5002408;28;20436;-76
2021/09/23 09:11:04;;;;;;;20.60;15.25;;;18.00;74.90;;;;;;5002044;28;20034;-75
2021/09/23 09:13:36;;;;;;;12.85;9.40;;;17.90;74.90;;;;;;5006154;28;20147;-78
2021/09/23 09:16:10;;;;;;;13.53;10.77;;;17.90;75.00;;;;;;5002546;28;20034;-77
2021/09/23 09:18:36;;;;;;;12.38;8.93;;;18.00;75.10;;;;;;4998615;28;20026;-77
2021/09/23 09:21:07;;;;;;;14.15;10.23;;;18.00;75.10;;;;;;5008825;28;20018;-76
2021/09/23 09:23:59;;;;;;;11.20;8.70;;;18.00;75.00;;;;;;5025936;28;20036;-75
2021/09/23 09:26:41;;;;;;;12.88;9.77;;;18.00;75.10;;;;;;5003946;28;20025;-75
2021/09/23 09:29:08;;;;;;;14.85;10.75;;;18.00;75.10;;;;;;5007581;28;20022;-77
2021/09/23 09:31:36;;;;;;;18.45;11.98;;;18.00;75.20;;;;;;5011405;28;20481;-77
2021/09/23 09:34:04;;;;;;;9.75;7.30;;;18.00;75.30;;;;;;5005403;28;20179;-77
2021/09/23 09:36:36;;;;;;;10.32;7.93;;;18.00;75.20;;;;;;5005367;28;20056;-77
2021/09/23 09:39:11;;;;;;;12.70;10.10;;;18.10;75.10;;;;;;5034062;28;20026;-75
2021/09/23 09:41:40;;;;;;;10.80;7.35;;;18.10;75.00;;;;;;5022058;28;20026;-76
2021/09/23 09:44:11;;;;;;;11.77;7.80;;;18.20;74.90;;;;;;5010823;28;20038;-76
2021/09/23 09:46:52;;;;;;;13.52;8.90;;;18.30;74.70;;;;;;5018217;28;20033;-76
2021/09/23 09:49:21;;;;;;;11.45;8.35;;;18.40;74.60;;;;;;5012517;28;20697;-76
2021/09/23 09:51:50;;;;;;;12.82;9.90;;;18.50;74.30;;;;;;5001178;28;20364;-76
2021/09/23 09:54:18;;;;;;;12.27;9.50;;;18.60;74.00;;;;;;5017225;28;20050;-76
2021/09/23 09:56:46;;;;;;;9.73;7.43;;;18.60;73.70;;;;;;5011521;28;20026;-76
2021/09/23 09:59:17;;;;;;;11.32;8.32;;;18.80;73.60;;;;;;5009748;28;20155;-76
2021/09/23 10:01:48;;;;;;;8.80;6.63;;;19.00;73.20;;;;;;5012038;28;20615;-76
2021/09/23 10:04:15;;;;;;;13.18;10.18;;;19.20;73.00;;;;;;5007631;28;20070;-76
2021/09/23 10:06:42;;;;;;;11.98;8.75;;;19.30;72.60;;;;;;5010687;28;20105;-76
2021/09/23 10:09:09;;;;;;;10.57;7.82;;;19.30;72.20;;;;;;5005221;28;20034;-76
2021/09/23 10:11:39;;;;;;;11.27;8.30;;;19.30;72.10;;;;;;5004968;28;20047;-76
2021/09/23 10:14:06;;;;;;;10.82;8.00;;;19.30;71.80;;;;;;5022598;28;20026;-76
2021/09/23 10:16:32;;;;;;;10.75;7.50;;;19.20;71.70;;;;;;5003392;28;20030;-76
2021/09/23 10:18:58;;;;;;;10.07;7.68;;;19.30;71.50;;;;;;5000815;28;20038;-76
2021/09/23 10:21:27;;;;;;;10.80;7.90;;;19.30;71.50;;;;;;5007238;28;20032;-77
2021/09/23 10:23:54;;;;;;;9.45;7.68;;;19.30;71.30;;;;;;5000778;28;20072;-77
2021/09/23 10:26:24;;;;;;;8.35;6.70;;;19.30;71.20;;;;;;5006021;28;20098;-76
2021/09/23 10:28:50;;;;;;;8.07;5.45;;;19.30;71.20;;;;;;5005690;28;20037;-76
2021/09/23 10:31:21;;;;;;;8.02;5.50;;;19.40;71.00;;;;;;5007094;28;20026;-77
2021/09/23 10:33:48;;;;;;;10.30;6.18;;;19.40;70.70;;;;;;5002504;28;20065;-76
2021/09/23 10:36:16;;;;;;;9.82;6.60;;;19.30;70.40;;;;;;5007815;28;20029;-76
2021/09/23 10:38:43;;;;;;;9.65;5.72;;;19.20;70.40;;;;;;5007763;28;20089;-77
2021/09/23 10:41:11;;;;;;;8.27;4.85;;;19.10;70.40;;;;;;5002608;28;20465;-77
2021/09/23 10:43:38;;;;;;;6.90;5.28;;;19.10;70.70;;;;;;5007642;28;20580;-76
2021/09/23 10:46:04;;;;;;;6.07;4.55;;;19.10;70.70;;;;;;5003781;28;20668;-76
2021/09/23 10:48:37;;;;;;;7.40;5.53;;;19.10;70.80;;;;;;5004572;28;20044;-76
2021/09/23 10:51:05;;;;;;;5.32;4.53;;;19.00;70.70;;;;;;5002963;28;20112;-76
2021/09/23 10:53:35;;;;;;;7.22;4.55;;;18.90;70.90;;;;;;5005312;28;20105;-75
2021/09/23 10:56:06;;;;;;;7.68;5.07;;;18.90;71.00;;;;;;5004949;28;20507;-76
2021/09/23 10:58:32;;;;;;;5.20;4.05;;;18.80;71.10;;;;;;5103976;27;20040;-76
2021/09/23 11:01:03;;;;;;;5.25;3.80;;;18.80;71.20;;;;;;5005717;28;20411;-77
2021/09/23 11:03:39;;;;;;;6.73;4.17;;;18.90;71.30;;;;;;5002247;28;20037;-75
2021/09/23 11:06:11;;;;;;;7.32;4.43;;;18.90;71.20;;;;;;4999778;28;20026;-74
2021/09/23 11:08:39;;;;;;;6.38;4.15;;;18.90;71.20;;;;;;5008755;28;20407;-74
2021/09/23 11:11:07;;;;;;;6.47;3.83;;;18.90;71.30;;;;;;5006074;28;20033;-75
2021/09/23 11:13:35;;;;;;;4.68;3.33;;;18.90;71.30;;;;;;5002987;28;20027;-76
2021/09/23 11:16:03;;;;;;;7.00;3.53;;;18.90;71.40;;;;;;5004360;28;20022;-76
2021/09/23 11:18:30;;;;;;;4.53;2.80;;;19.00;71.50;;;;;;5005374;28;20443;-76
2021/09/23 11:20:57;;;;;;;5.68;3.65;;;19.00;71.30;;;;;;5007380;28;20030;-76
2021/09/23 11:23:23;;;;;;;5.22;3.17;;;19.10;71.20;;;;;;5005176;28;20090;-75
2021/09/23 11:25:50;;;;;;;4.53;2.83;;;19.10;71.20;;;;;;5004648;28;20022;-74
2021/09/23 11:28:21;;;;;;;4.45;2.70;;;19.10;71.10;;;;;;5004631;28;20028;-76
2021/09/23 11:30:50;;;;;;;6.40;3.38;;;19.20;71.00;;;;;;5009806;28;20175;-78
2021/09/23 11:33:17;;;;;;;4.72;2.70;;;19.20;70.80;;;;;;5011439;28;20113;-75
2021/09/23 11:35:45;;;;;;;4.22;3.05;;;19.20;70.50;;;;;;5030923;28;20020;-75
2021/09/23 11:38:14;;;;;;;5.95;2.80;;;19.30;70.10;;;;;;5008254;28;20635;-73
2021/09/23 11:40:42;;;;;;;3.55;2.28;;;19.30;69.60;;;;;;5044462;27;20472;-76
2021/09/23 11:43:14;;;;;;;3.85;2.40;;;19.40;69.50;;;;;;5027984;28;20029;-77
2021/09/23 11:45:51;;;;;;;3.80;2.17;;;19.50;69.30;;;;;;5049896;28;20037;-76
2021/09/23 11:48:23;;;;;;;4.65;2.38;;;19.70;69.10;;;;;;5042498;28;20020;-78
2021/09/23 11:50:58;;;;;;;;;;;19.90;68.60;;;;;;5056946;28;20033;-76
2021/09/23 11:53:27;;;;;;;3.85;2.40;;;20.10;68.30;;;;;;5020789;28;20237;-76
2021/09/23 11:56:16;;;;;;;3.95;2.00;;;20.20;67.70;;;;;;5030050;28;20022;-76
2021/09/23 11:58:47;;;;;;;3.40;1.90;;;20.40;67.50;;;;;;5008237;28;20037;-77
2021/09/23 12:01:13;;;;;;;3.53;1.80;;;20.70;67.20;;;;;;5037549;28;20029;-76
2021/09/23 12:03:41;;;;;;;4.22;2.35;;;20.80;66.70;;;;;;5020522;28;20076;-80
2021/09/23 12:06:09;;;;;;;3.85;2.50;;;20.90;66.10;;;;;;5025422;28;20033;-76
2021/09/23 12:08:35;;;;;;;5.38;2.50;;;20.90;65.70;;;;;;5029538;28;20017;-77
2021/09/23 12:11:03;;;;;;;4.88;2.70;;;20.90;65.20;;;;;;5005104;28;20093;-75
2021/09/23 12:13:40;;;;;;;4.05;2.33;;;20.90;65.00;;;;;;5007361;28;20472;-77
2021/09/23 12:16:22;;;;;;;4.32;2.08;;;21.00;64.60;;;;;;5009342;28;20033;-77
2021/09/23 12:18:48;;;;;;;5.70;2.83;;;21.00;64.20;;;;;;5017648;28;20104;-74
2021/09/23 12:21:18;;;;;;;6.20;2.53;;;21.00;63.70;;;;;;5007105;28;20022;-78
2021/09/23 12:23:46;;;;;;;5.75;2.67;;;21.00;63.60;;;;;;5001980;28;20057;-77
2021/09/23 12:26:37;;;;;;;5.20;2.33;;;21.00;63.80;;;;;;5011838;28;20104;-76
2021/09/23 12:29:27;;;;;;;4.97;2.60;;;21.00;63.80;;;;;;5018998;28;20030;-76
2021/09/23 12:32:06;;;;;;;4.82;2.78;;;21.10;63.40;;;;;;5004546;28;20018;-75
2021/09/23 12:34:37;;;;;;;4.20;2.28;;;21.00;63.30;;;;;;5005970;28;20032;-75